Time;durP1;ratioP1;P1;durP2;ratioP2;P2;SDS_P1;SDS_P2;PMS_P1;PMS_P2;Temp;Humidity;BMP_temperature;BMP_pressure;BME280_temperature;BME280_humidity;BME280_pressure;Samples;Min_cycle;Max_cycle;Signal;HPM_P1;HPM_P2
2023/01/13 00:02:24;;;;;;;1.73;1.10;;;11.60;99.90;;;;;;4897570;29;20441;-77
2023/01/13 00:04:49;;;;;;;1.10;1.00;;;11.60;99.90;;;;;;4899069;29;20443;-77
2023/01/13 00:07:15;;;;;;;1.90;1.60;;;11.60;99.90;;;;;;4900756;29;20275;-76
2023/01/13 00:09:40;;;;;;;2.10;1.17;;;11.60;99.90;;;;;;4885559;29;20219;-75
2023/01/13 00:12:06;;;;;;;1.63;1.00;;;11.70;99.90;;;;;;4904202;29;20290;-78
2023/01/13 00:14:35;;;;;;;1.30;1.10;;;11.70;99.90;;;;;;4908672;29;20283;-75
2023/01/13 00:17:02;;;;;;;1.83;0.97;;;11.50;99.90;;;;;;4905861;29;20195;-75
2023/01/13 00:19:27;;;;;;;1.47;0.97;;;11.60;99.90;;;;;;4903708;29;20483;-75
2023/01/13 00:21:53;;;;;;;1.40;0.90;;;11.60;99.90;;;;;;4902486;29;20494;-78
2023/01/13 00:24:19;;;;;;;2.03;1.07;;;11.50;99.90;;;;;;4900698;29;20531;-78
2023/01/13 00:26:44;;;;;;;1.00;0.90;;;11.50;99.90;;;;;;4914233;29;20231;-75
2023/01/13 00:29:10;;;;;;;1.10;0.80;;;11.50;99.90;;;;;;4915279;29;20223;-75
2023/01/13 00:31:35;;;;;;;1.07;0.97;;;11.40;99.90;;;;;;4914239;29;20322;-75
2023/01/13 00:34:01;;;;;;;1.20;0.90;;;11.50;99.90;;;;;;4912520;29;20184;-76
2023/01/13 00:36:28;;;;;;;1.13;0.80;;;11.40;99.90;;;;;;4910779;29;20348;-75
2023/01/13 00:38:54;;;;;;;1.23;0.80;;;11.40;99.90;;;;;;4909373;29;20247;-75
2023/01/13 00:41:24;;;;;;;1.57;0.90;;;11.40;99.90;;;;;;4905134;29;20934;-74
2023/01/13 00:43:49;;;;;;;1.10;0.70;;;11.50;99.90;;;;;;4906666;29;20805;-74
2023/01/13 00:46:18;;;;;;;3.20;1.00;;;11.60;99.90;;;;;;4908247;29;20444;-74
2023/01/13 00:48:44;;;;;;;1.30;0.80;;;11.50;99.90;;;;;;4910116;29;20339;-74
2023/01/13 00:51:20;;;;;;;1.53;1.03;;;11.40;99.90;;;;;;4911669;29;20791;-74
2023/01/13 00:53:48;;;;;;;1.37;1.00;;;11.50;99.90;;;;;;4913502;29;20936;-75
2023/01/13 00:56:18;;;;;;;3.27;0.83;;;11.40;99.90;;;;;;4914901;29;20438;-74
2023/01/13 00:58:44;;;;;;;2.10;1.07;;;11.50;99.90;;;;;;4914455;29;20463;-74
2023/01/13 01:01:19;;;;;;;3.63;1.00;;;11.40;99.90;;;;;;4912361;29;20765;-74
2023/01/13 01:03:48;;;;;;;1.70;1.10;;;11.40;99.90;;;;;;4902693;29;20428;-74
2023/01/13 01:06:17;;;;;;;2.10;0.93;;;11.40;99.90;;;;;;4909023;29;20448;-76
2023/01/13 01:08:43;;;;;;;3.00;1.00;;;11.40;99.90;;;;;;4907070;29;20475;-77
2023/01/13 01:11:12;;;;;;;1.40;1.30;;;11.50;99.90;;;;;;4905565;29;20436;-77
2023/01/13 01:13:39;;;;;;;10.67;1.30;;;11.50;99.90;;;;;;4904683;29;20523;-77
2023/01/13 01:16:06;;;;;;;2.70;1.40;;;11.60;99.90;;;;;;4910465;29;20531;-76
2023/01/13 01:18:37;;;;;;;1.63;1.30;;;11.40;99.90;;;;;;4912269;29;20468;-77
2023/01/13 01:21:03;;;;;;;4.53;1.70;;;11.40;99.90;;;;;;4913768;29;20534;-78
2023/01/13 01:23:29;;;;;;;4.37;1.50;;;11.50;99.90;;;;;;4915916;29;20523;-78
2023/01/13 01:26:00;;;;;;;3.73;1.50;;;11.40;99.90;;;;;;4914909;29;20551;-79
2023/01/13 01:28:25;;;;;;;7.40;1.20;;;11.40;99.90;;;;;;4913413;29;20431;-78
2023/01/13 05:31:53;;;;;;;13.27;1.93;;;10.00;99.90;;;;;;5266580;23;20547;-79
2023/01/13 05:34:18;;;;;;;9.87;2.63;;;10.00;99.90;;;;;;4903830;29;20942;-79
2023/01/13 05:36:44;;;;;;;13.00;2.33;;;10.10;99.90;;;;;;4905818;29;20275;-75
2023/01/13 05:39:09;;;;;;;13.97;2.67;;;10.00;99.90;;;;;;4907115;29;20315;-75
2023/01/13 05:44:19;;;;;;;5.43;2.33;;;10.00;99.90;;;;;;4908625;29;20191;-73
2023/01/13 05:46:45;;;;;;;4.17;2.73;;;10.10;99.90;;;;;;4907087;29;20425;-81
2023/01/13 05:49:10;;;;;;;8.30;2.63;;;10.20;99.90;;;;;;4905457;29;20238;-82
2023/01/13 05:51:36;;;;;;;11.23;3.67;;;10.10;99.90;;;;;;4909506;29;20242;-81
2023/01/13 05:54:01;;;;;;;12.40;3.00;;;10.10;99.90;;;;;;4915541;29;20738;-82
2023/01/13 05:56:27;;;;;;;10.37;1.70;;;10.10;99.90;;;;;;4911594;29;20195;-81
2023/01/13 05:58:52;;;;;;;4.77;2.37;;;10.10;99.90;;;;;;4909566;29;20208;-83
2023/01/13 06:01:18;;;;;;;12.53;2.37;;;9.90;99.90;;;;;;4904221;29;20184;-81
2023/01/13 06:03:43;;;;;;;4.33;2.13;;;10.00;99.90;;;;;;4904236;29;20193;-81
2023/01/13 06:06:09;;;;;;;9.90;2.20;;;10.10;99.90;;;;;;4912064;29;20195;-80
2023/01/13 06:08:34;;;;;;;7.33;2.37;;;10.00;99.90;;;;;;4904712;29;20251;-82
2023/01/13 06:11:00;;;;;;;10.97;2.27;;;10.00;99.90;;;;;;4898797;29;20287;-81
2023/01/13 06:13:26;;;;;;;6.17;1.73;;;10.00;99.90;;;;;;4900466;29;20231;-82
2023/01/13 06:15:56;;;;;;;8.87;2.67;;;10.00;99.90;;;;;;4913804;29;20179;-83
2023/01/13 06:18:21;;;;;;;30.17;2.23;;;10.00;99.90;;;;;;4915697;29;20280;-80
2023/01/13 06:20:47;;;;;;;9.43;2.93;;;10.00;99.90;;;;;;4913330;29;20460;-83
2023/01/13 06:23:12;;;;;;;12.17;2.70;;;10.00;99.90;;;;;;4912417;29;20215;-83
2023/01/13 06:26:05;;;;;;;13.13;2.00;;;10.00;99.90;;;;;;4912035;29;20187;-78
2023/01/13 06:28:32;;;;;;;30.97;3.30;;;9.90;99.90;;;;;;4913488;29;20618;-81
2023/01/13 06:31:01;;;;;;;6.10;2.07;;;9.90;99.90;;;;;;4903232;29;20501;-79
2023/01/13 06:33:37;;;;;;;6.70;1.97;;;10.00;99.90;;;;;;4906933;29;20504;-79
2023/01/13 06:36:10;;;;;;;11.50;3.10;;;10.00;99.90;;;;;;4906928;29;20439;-80
2023/01/13 06:38:39;;;;;;;7.27;2.00;;;10.10;99.90;;;;;;4908170;29;21331;-80
2023/01/13 06:41:06;;;;;;;8.93;2.10;;;10.10;99.90;;;;;;4906830;29;20436;-80
2023/01/13 06:43:32;;;;;;;5.77;2.07;;;10.20;99.90;;;;;;4905662;29;20474;-80
2023/01/13 06:45:59;;;;;;;14.93;2.50;;;10.20;99.90;;;;;;4904103;29;20956;-79
2023/01/13 06:48:31;;;;;;;9.87;2.40;;;10.20;99.90;;;;;;4916135;29;20188;-79
2023/01/13 06:50:57;;;;;;;16.13;2.43;;;10.10;99.90;;;;;;4901308;29;20437;-79
2023/01/13 06:53:23;;;;;;;10.10;3.73;;;10.00;99.90;;;;;;4917473;29;20443;-79
2023/01/13 06:55:48;;;;;;;6.57;2.37;;;10.00;99.90;;;;;;4915844;29;20188;-79
2023/01/13 06:58:14;;;;;;;5.77;1.63;;;10.00;99.90;;;;;;4914063;29;20573;-79
2023/01/13 07:00:40;;;;;;;10.37;1.70;;;10.00;99.90;;;;;;4912560;29;20180;-79
2023/01/13 07:03:08;;;;;;;6.60;1.83;;;9.90;99.90;;;;;;4911043;29;20184;-79
2023/01/13 07:05:34;;;;;;;14.30;2.27;;;9.90;99.90;;;;;;4908622;29;20287;-79
2023/01/13 07:08:00;;;;;;;6.67;2.23;;;9.90;99.90;;;;;;4909791;29;20520;-78
2023/01/13 07:10:25;;;;;;;3.70;1.63;;;9.90;99.90;;;;;;4905531;29;20192;-79
2023/01/13 07:15:35;;;;;;;8.57;2.33;;;9.90;99.90;;;;;;4907557;29;20271;-81
2023/01/13 07:18:01;;;;;;;9.93;2.00;;;9.80;99.90;;;;;;4900104;29;20905;-81
2023/01/13 07:20:27;;;;;;;8.60;2.57;;;9.90;99.90;;;;;;4900031;29;20527;-81
2023/01/13 07:22:53;;;;;;;11.40;2.47;;;9.90;99.90;;;;;;4902091;29;20189;-80
2023/01/13 07:25:20;;;;;;;7.83;2.30;;;9.90;99.90;;;;;;4914099;29;20439;-80
2023/01/13 07:27:45;;;;;;;16.17;2.70;;;9.90;99.90;;;;;;4911152;29;20432;-80
2023/01/13 07:30:11;;;;;;;8.80;2.10;;;9.90;99.90;;;;;;4910293;29;20492;-80
2023/01/13 07:32:37;;;;;;;3.97;1.97;;;9.90;99.90;;;;;;4908514;29;20239;-80
2023/01/13 07:35:06;;;;;;;15.80;4.37;;;9.90;99.90;;;;;;4907321;29;20429;-79
2023/01/13 07:37:33;;;;;;;11.43;2.60;;;9.90;99.90;;;;;;4905059;29;20306;-80
2023/01/13 07:40:00;;;;;;;6.13;1.83;;;9.90;99.90;;;;;;4906827;29;20432;-83
2023/01/13 07:45:11;;;;;;;8.30;2.07;;;9.90;99.90;;;;;;4914134;29;20840;-81
2023/01/13 07:47:36;;;;;;;10.13;3.00;;;9.90;99.90;;;;;;4916751;29;20440;-80
2023/01/13 07:50:02;;;;;;;12.47;2.20;;;9.90;99.90;;;;;;4915184;29;20571;-80
2023/01/13 07:52:28;;;;;;;10.80;2.80;;;9.90;99.90;;;;;;4913750;29;20200;-83
2023/01/13 07:54:53;;;;;;;9.57;2.57;;;9.80;99.90;;;;;;4911663;29;20184;-82
2023/01/13 07:57:19;;;;;;;7.23;2.73;;;9.80;99.90;;;;;;4908962;29;20675;-82
2023/01/13 07:59:44;;;;;;;8.10;2.40;;;9.90;99.90;;;;;;4907599;29;20195;-80
2023/01/13 08:02:11;;;;;;;7.80;2.57;;;9.90;99.90;;;;;;4909039;29;20290;-80
2023/01/13 08:04:37;;;;;;;8.10;2.47;;;9.90;99.90;;;;;;4910794;29;20195;-80
2023/01/13 08:07:04;;;;;;;13.27;3.93;;;9.90;99.90;;;;;;4912669;29;20470;-80
2023/01/13 08:09:29;;;;;;;6.77;1.90;;;9.90;99.90;;;;;;4912180;29;20444;-85
2023/01/13 08:14:39;;;;;;;13.27;2.40;;;9.80;99.90;;;;;;4913137;29;20591;-74
2023/01/13 08:17:06;;;;;;;6.57;2.00;;;9.80;99.90;;;;;;4911909;29;20522;-76
2023/01/13 08:19:32;;;;;;;4.80;2.00;;;9.80;99.90;;;;;;4912582;29;20671;-74
2023/01/13 08:21:58;;;;;;;8.53;2.60;;;9.80;99.90;;;;;;4913021;29;20438;-74
2023/01/13 08:24:23;;;;;;;7.63;2.03;;;9.80;99.90;;;;;;4906104;29;20200;-75
2023/01/13 08:26:49;;;;;;;5.97;1.70;;;9.80;99.90;;;;;;4907786;29;20188;-75
2023/01/13 08:29:14;;;;;;;9.77;2.90;;;9.90;99.90;;;;;;4910231;29;20187;-74
2023/01/13 08:31:40;;;;;;;8.03;2.60;;;9.90;99.90;;;;;;4906320;29;20278;-75
2023/01/13 08:34:05;;;;;;;13.20;2.50;;;9.90;99.90;;;;;;4910707;29;20243;-74
2023/01/13 08:36:31;;;;;;;7.73;2.20;;;9.80;99.90;;;;;;4912636;29;20556;-74
2023/01/13 08:38:56;;;;;;;10.57;2.30;;;9.80;99.90;;;;;;4913950;29;20234;-79
2023/01/13 08:44:08;;;;;;;5.07;2.27;;;9.90;99.90;;;;;;4913967;29;20286;-77
2023/01/13 08:46:34;;;;;;;12.30;3.00;;;9.90;99.90;;;;;;4911946;29;20443;-77
2023/01/13 08:49:00;;;;;;;13.23;2.57;;;9.90;99.90;;;;;;4910384;29;20448;-77
2023/01/13 08:51:25;;;;;;;11.83;2.60;;;9.80;99.90;;;;;;4909511;29;20515;-77
2023/01/13 08:53:51;;;;;;;7.40;2.40;;;9.90;99.90;;;;;;4905416;29;20670;-77
2023/01/13 08:56:16;;;;;;;8.97;2.47;;;9.90;99.90;;;;;;4906626;29;20193;-77
2023/01/13 08:58:42;;;;;;;11.10;4.10;;;9.90;99.90;;;;;;4906082;29;20228;-77
2023/01/13 09:01:10;;;;;;;10.00;2.67;;;9.90;99.90;;;;;;4901073;29;20200;-78
2023/01/13 09:03:35;;;;;;;6.80;2.00;;;9.90;99.90;;;;;;4883581;29;20648;-79
2023/01/13 09:06:01;;;;;;;11.63;2.77;;;10.00;99.90;;;;;;4898524;29;20432;-77
2023/01/13 09:08:26;;;;;;;11.60;2.03;;;10.00;99.90;;;;;;4897054;29;20196;-81
2023/01/13 09:10:52;;;;;;;9.97;2.40;;;10.00;99.90;;;;;;4898435;29;20603;-80
2023/01/13 09:13:19;;;;;;;12.40;3.27;;;10.00;99.90;;;;;;4900077;29;20203;-78
2023/01/13 09:15:45;;;;;;;7.07;2.50;;;10.00;99.90;;;;;;4887268;29;20215;-78
2023/01/13 09:18:11;;;;;;;10.37;2.53;;;10.10;99.90;;;;;;4903148;29;20476;-81
2023/01/13 09:20:37;;;;;;;7.47;2.50;;;10.10;99.90;;;;;;4907404;29;20500;-78
2023/01/13 09:23:06;;;;;;;8.60;3.23;;;10.10;99.90;;;;;;4907385;29;20436;-79
2023/01/13 09:25:35;;;;;;;12.60;2.47;;;10.10;99.90;;;;;;4891755;29;20475;-79
2023/01/13 09:28:01;;;;;;;7.60;2.80;;;10.00;99.90;;;;;;4909751;29;20436;-80
2023/01/13 09:30:27;;;;;;;11.40;2.80;;;10.10;99.90;;;;;;4900247;29;20802;-78
2023/01/13 09:34:58;;;;;;;12.90;2.93;;;10.00;99.90;;;;;;4898623;29;20477;-79
2023/01/13 09:35:38;;;;;;;9.27;2.97;;;10.10;99.90;;;;;;4912072;29;20180;-79
2023/01/13 09:38:04;;;;;;;7.20;1.70;;;10.10;99.90;;;;;;4913757;29;20475;-79
2023/01/13 09:40:30;;;;;;;10.00;2.90;;;10.10;99.90;;;;;;4912110;29;20553;-79
2023/01/13 09:43:55;;;;;;;5.13;2.53;;;10.10;99.90;;;;;;4893709;29;20428;-78
2023/01/13 09:46:42;;;;;;;11.63;3.03;;;10.10;99.90;;;;;;4902997;29;20204;-79
2023/01/13 09:49:28;;;;;;;11.80;2.33;;;10.10;99.90;;;;;;4905541;29;20448;-77
2023/01/13 09:52:06;;;;;;;11.40;4.13;;;10.20;99.90;;;;;;4906646;29;20438;-80
2023/01/13 09:54:50;;;;;;;19.37;2.73;;;10.20;99.90;;;;;;4908865;29;20436;-76
2023/01/13 09:57:18;;;;;;;15.30;2.97;;;10.20;99.90;;;;;;4904079;29;20436;-77
2023/01/13 09:59:44;;;;;;;13.90;3.20;;;10.10;99.90;;;;;;4904695;29;20461;-77
2023/01/13 10:02:28;;;;;;;5.93;2.30;;;10.20;99.90;;;;;;4912675;29;20439;-78
2023/01/13 10:05:02;;;;;;;14.40;3.13;;;10.20;99.90;;;;;;4913279;29;20446;-80
2023/01/13 10:07:33;;;;;;;6.73;3.13;;;10.30;99.90;;;;;;4906396;29;20559;-81
2023/01/13 10:10:00;;;;;;;20.67;3.00;;;10.30;99.90;;;;;;4904981;29;20847;-81
2023/01/13 10:15:18;;;;;;;13.70;3.00;;;10.40;99.90;;;;;;4912969;29;20789;-82
2023/01/13 10:18:00;;;;;;;10.00;3.77;;;10.40;99.90;;;;;;4910125;29;20464;-80
2023/01/13 10:20:38;;;;;;;8.60;2.80;;;10.30;99.90;;;;;;4909708;29;20840;-80
2023/01/13 10:23:17;;;;;;;12.30;3.70;;;10.40;99.90;;;;;;4912750;29;20439;-82
2023/01/13 10:26:00;;;;;;;12.87;2.90;;;10.30;99.90;;;;;;4911276;29;20490;-80
2023/01/13 10:28:25;;;;;;;12.70;3.30;;;10.30;99.90;;;;;;4901116;29;20936;-80
2023/01/13 10:30:51;;;;;;;10.03;2.83;;;10.40;99.90;;;;;;4899808;29;20523;-76
2023/01/13 10:33:28;;;;;;;10.03;2.70;;;10.50;99.90;;;;;;4900904;29;20731;-76
2023/01/13 10:35:55;;;;;;;8.30;2.30;;;10.40;99.90;;;;;;4903119;29;20206;-78
2023/01/13 10:38:39;;;;;;;10.77;3.33;;;10.40;99.90;;;;;;4908699;29;20542;-83
2023/01/13 10:41:16;;;;;;;8.77;3.10;;;10.20;99.90;;;;;;4907100;29;20441;-78
2023/01/13 10:43:59;;;;;;;21.60;3.70;;;10.20;99.90;;;;;;4908853;29;20424;-76
2023/01/13 10:46:25;;;;;;;13.80;3.27;;;10.10;99.90;;;;;;4908896;29;20520;-76
2023/01/13 10:48:55;;;;;;;16.60;3.17;;;10.20;99.90;;;;;;4905297;29;20811;-77
2023/01/13 10:51:26;;;;;;;13.80;3.13;;;10.30;99.90;;;;;;4903424;29;20922;-78
2023/01/13 10:54:01;;;;;;;17.50;3.67;;;10.30;99.90;;;;;;4901252;29;20538;-78
2023/01/13 10:56:32;;;;;;;8.67;2.90;;;10.20;99.90;;;;;;4905408;29;20435;-77
2023/01/13 10:59:21;;;;;;;10.83;4.40;;;10.30;99.90;;;;;;4899084;29;20987;-77
2023/01/13 11:02:22;;;;;;;8.37;3.60;;;10.30;99.90;;;;;;4901198;29;20823;-77
2023/01/13 11:04:54;;;;;;;12.10;3.30;;;10.30;99.90;;;;;;4896191;29;20452;-77
2023/01/13 11:07:37;;;;;;;18.13;4.43;;;10.40;99.90;;;;;;4909081;29;20439;-77
2023/01/13 11:10:22;;;;;;;15.13;2.93;;;10.50;99.90;;;;;;4908761;29;20436;-77
2023/01/13 11:13:12;;;;;;;8.43;2.97;;;10.50;99.90;;;;;;4908389;29;20783;-76
2023/01/13 11:16:11;;;;;;;12.57;3.33;;;10.70;99.90;;;;;;4891796;29;20876;-76
2023/01/13 11:18:40;;;;;;;11.20;3.03;;;10.80;99.90;;;;;;4902865;29;20579;-75
2023/01/13 11:21:19;;;;;;;13.43;3.47;;;10.90;99.90;;;;;;4913917;29;20427;-75
2023/01/13 11:23:53;;;;;;;13.60;2.97;;;11.00;99.90;;;;;;4908170;29;20450;-75
2023/01/13 11:26:39;;;;;;;12.30;4.10;;;11.00;99.90;;;;;;4889690;29;20447;-75
2023/01/13 11:29:16;;;;;;;14.00;3.70;;;11.00;99.90;;;;;;4900638;29;20436;-76
2023/01/13 11:31:47;;;;;;;11.47;3.77;;;11.00;99.90;;;;;;4912295;29;20475;-77
2023/01/13 11:34:29;;;;;;;12.53;4.60;;;11.00;99.90;;;;;;4903184;29;20445;-77
2023/01/13 11:36:58;;;;;;;10.30;2.47;;;10.90;99.90;;;;;;4908620;29;20440;-78
2023/01/13 11:39:40;;;;;;;15.43;3.33;;;11.00;99.90;;;;;;4907120;29;20483;-76
2023/01/13 11:42:42;;;;;;;14.60;2.73;;;10.90;99.90;;;;;;4909572;29;20435;-77
2023/01/13 11:45:35;;;;;;;21.37;3.70;;;10.90;99.90;;;;;;4901584;29;20843;-75
2023/01/13 11:48:01;;;;;;;11.17;2.57;;;10.90;99.90;;;;;;4900696;29;20456;-74
2023/01/13 11:50:39;;;;;;;9.33;2.40;;;10.90;99.90;;;;;;4899301;29;20443;-75
2023/01/13 11:53:26;;;;;;;8.03;2.53;;;10.80;99.90;;;;;;4898155;29;20450;-77
2023/01/13 11:56:12;;;;;;;9.93;2.10;;;10.60;99.90;;;;;;4899967;29;20428;-77
2023/01/13 11:58:57;;;;;;;8.63;2.60;;;10.50;99.90;;;;;;4901399;29;20483;-76
2023/01/13 12:01:34;;;;;;;11.73;2.03;;;10.40;99.90;;;;;;4905107;29;20443;-76
2023/01/13 12:04:22;;;;;;;9.83;3.00;;;10.20;99.90;;;;;;4908558;29;20448;-76
2023/01/13 12:07:04;;;;;;;18.27;3.33;;;10.20;99.90;;;;;;4909327;29;20944;-77
2023/01/13 12:10:05;;;;;;;10.87;3.57;;;10.20;99.90;;;;;;4909667;29;20499;-78
2023/01/13 12:12:40;;;;;;;15.03;2.63;;;10.10;99.90;;;;;;4911212;29;20428;-79
2023/01/13 12:15:27;;;;;;;15.77;3.93;;;10.10;99.90;;;;;;4911819;29;20442;-76
2023/01/13 12:18:14;;;;;;;13.43;3.27;;;10.20;99.90;;;;;;4911011;29;20778;-75
2023/01/13 12:21:05;;;;;;;13.50;3.50;;;10.20;99.90;;;;;;4914665;29;20439;-76
2023/01/13 12:23:45;;;;;;;10.70;2.50;;;10.10;99.90;;;;;;4912024;29;20451;-75
2023/01/13 12:26:14;;;;;;;19.17;3.87;;;10.10;99.90;;;;;;4913087;29;20788;-76
2023/01/13 12:29:01;;;;;;;20.37;3.63;;;10.10;99.90;;;;;;4913364;29;20774;-78
2023/01/13 12:31:27;;;;;;;9.70;2.77;;;10.10;99.90;;;;;;4912281;29;20471;-80
2023/01/13 12:34:17;;;;;;;13.90;4.00;;;10.20;99.90;;;;;;4920211;29;20499;-82
2023/01/13 12:36:49;;;;;;;18.47;3.93;;;10.10;99.90;;;;;;4925112;29;20180;-82
2023/01/13 12:39:24;;;;;;;21.67;3.50;;;10.10;99.90;;;;;;4908505;29;20876;-77
2023/01/13 12:45:18;;;;;;;19.90;3.67;;;10.10;99.90;;;;;;4900447;29;20490;-77
2023/01/13 12:47:47;;;;;;;7.33;2.60;;;10.00;99.90;;;;;;4896073;29;20441;-78
2023/01/13 12:50:25;;;;;;;10.70;3.00;;;10.00;99.90;;;;;;4899587;29;20504;-78
2023/01/13 12:52:55;;;;;;;13.20;3.10;;;9.90;99.90;;;;;;4901810;29;20443;-78
2023/01/13 12:55:43;;;;;;;9.90;4.10;;;9.70;99.90;;;;;;4902275;29;20486;-78
2023/01/13 12:58:08;;;;;;;10.10;3.53;;;9.70;99.90;;;;;;4905728;29;20624;-78
2023/01/13 13:00:40;;;;;;;8.40;2.80;;;9.70;99.90;;;;;;4906606;29;20524;-79
2023/01/13 13:03:12;;;;;;;9.67;2.63;;;9.70;99.90;;;;;;4904632;29;20188;-70
2023/01/13 13:05:53;;;;;;;11.10;3.13;;;9.70;99.90;;;;;;4902938;29;20840;-78
2023/01/13 13:08:39;;;;;;;16.30;3.40;;;9.80;99.90;;;;;;4900644;29;20799;-78
2023/01/13 13:13:16;;;;;;;11.17;3.30;;;9.70;99.90;;;;;;4913077;29;20443;-82
2023/01/13 13:14:10;;;;;;;12.27;3.47;;;9.60;99.90;;;;;;4910435;29;20476;-80
2023/01/13 13:16:45;;;;;;;10.97;2.87;;;9.70;99.90;;;;;;4901563;29;20795;-80
2023/01/13 13:19:16;;;;;;;6.70;2.10;;;9.80;99.90;;;;;;4901599;29;20538;-80
2023/01/13 13:22:10;;;;;;;7.00;2.47;;;9.90;99.90;;;;;;4901437;29;20512;-79
2023/01/13 13:24:36;;;;;;;10.83;2.40;;;10.10;99.90;;;;;;4905130;29;20899;-79
2023/01/13 13:27:30;;;;;;;8.23;2.67;;;10.20;99.90;;;;;;4908906;29;20495;-80
2023/01/13 13:29:55;;;;;;;4.00;1.70;;;10.40;99.90;;;;;;4910706;29;20460;-80
2023/01/13 13:32:30;;;;;;;12.73;2.73;;;10.40;99.90;;;;;;4912116;29;20925;-80
2023/01/13 13:35:34;;;;;;;9.83;2.00;;;10.40;99.90;;;;;;4904997;29;20281;-80
2023/01/13 13:46:48;;;;;;;10.13;2.87;;;10.50;99.90;;;;;;4914023;29;20844;-80
2023/01/13 13:49:18;;;;;;;8.00;2.60;;;10.50;99.90;;;;;;4914691;29;20442;-82
2023/01/13 13:52:22;;;;;;;10.17;2.90;;;10.40;99.90;;;;;;4907350;29;20806;-81
2023/01/13 13:54:54;;;;;;;11.90;2.90;;;10.30;99.90;;;;;;4907778;29;21107;-81
2023/01/13 13:57:41;;;;;;;8.80;3.27;;;10.20;99.90;;;;;;4908899;29;20445;-81
2023/01/13 14:00:20;;;;;;;11.03;2.70;;;10.20;99.90;;;;;;4913044;29;20541;-80
2023/01/13 14:02:59;;;;;;;9.60;3.70;;;10.00;99.90;;;;;;4914663;29;20491;-81
2023/01/13 14:05:30;;;;;;;8.40;2.70;;;9.90;99.90;;;;;;4916921;29;20435;-81
2023/01/13 14:07:59;;;;;;;19.83;3.53;;;10.00;99.90;;;;;;4918238;29;20436;-81
2023/01/13 14:10:36;;;;;;;10.07;2.20;;;10.00;99.90;;;;;;4902647;29;20446;-81
2023/01/13 14:13:18;;;;;;;11.17;3.60;;;9.90;99.90;;;;;;4903019;29;20530;-81
2023/01/13 14:15:46;;;;;;;7.93;3.00;;;10.00;99.90;;;;;;4910512;29;20463;-92
2023/01/13 14:18:18;;;;;;;9.03;3.23;;;10.00;99.90;;;;;;4911627;29;20531;-85
2023/01/13 14:20:53;;;;;;;10.83;2.70;;;10.00;99.90;;;;;;4913081;29;20490;-84
2023/01/13 14:23:23;;;;;;;14.50;2.90;;;9.90;99.90;;;;;;4909129;29;20439;-83
2023/01/13 14:25:51;;;;;;;7.20;2.90;;;9.90;99.90;;;;;;4889654;29;20854;-80
2023/01/13 14:28:42;;;;;;;19.73;4.27;;;9.90;99.90;;;;;;4915486;29;20445;-81
2023/01/13 14:31:09;;;;;;;6.47;4.30;;;9.90;99.90;;;;;;4912983;29;21144;-80
2023/01/13 14:33:43;;;;;;;15.53;3.60;;;9.80;99.90;;;;;;4911703;29;20487;-79
2023/01/13 14:36:18;;;;;;;14.80;3.13;;;9.80;99.90;;;;;;4902100;29;20427;-79
2023/01/13 14:38:49;;;;;;;15.03;4.00;;;9.70;99.90;;;;;;4899424;29;20483;-80
2023/01/13 14:41:20;;;;;;;6.67;3.00;;;9.70;99.90;;;;;;4907164;29;20430;-79
2023/01/13 14:43:47;;;;;;;7.40;2.93;;;9.60;99.90;;;;;;4893505;29;20527;-80
2023/01/13 14:46:13;;;;;;;17.40;2.90;;;9.60;99.90;;;;;;4911331;29;20429;-78
2023/01/13 14:48:43;;;;;;;12.87;4.90;;;9.50;99.90;;;;;;4906689;29;20444;-76
2023/01/13 14:51:11;;;;;;;7.67;3.10;;;9.60;99.90;;;;;;4909811;29;20439;-80
2023/01/13 14:53:45;;;;;;;7.70;3.43;;;9.70;99.90;;;;;;4907211;29;20483;-80
2023/01/13 14:56:41;;;;;;;11.50;3.10;;;9.70;99.90;;;;;;4906314;29;20474;-79
2023/01/13 14:59:35;;;;;;;9.33;3.80;;;9.60;99.90;;;;;;4913927;29;20535;-79
2023/01/13 15:02:21;;;;;;;11.87;3.27;;;9.60;99.90;;;;;;4916145;29;20975;-79
2023/01/13 15:04:47;;;;;;;11.60;3.00;;;9.60;99.90;;;;;;4912614;29;20834;-78
2023/01/13 15:07:25;;;;;;;7.33;2.63;;;9.50;99.90;;;;;;4908287;29;20440;-77
2023/01/13 15:09:59;;;;;;;7.30;3.20;;;9.50;99.90;;;;;;4906581;29;20175;-78
2023/01/13 15:12:36;;;;;;;17.50;3.60;;;9.50;99.90;;;;;;4912008;29;20431;-78
2023/01/13 15:15:05;;;;;;;8.37;3.83;;;9.40;99.90;;;;;;4910056;29;20939;-78
2023/01/13 15:17:31;;;;;;;9.20;2.50;;;9.50;99.90;;;;;;4908674;29;20445;-78
2023/01/13 15:19:56;;;;;;;13.73;4.30;;;9.60;99.90;;;;;;4914110;29;20445;-78
2023/01/13 15:22:22;;;;;;;10.73;3.03;;;9.60;99.90;;;;;;4910117;29;20198;-78
2023/01/13 15:24:49;;;;;;;13.37;3.13;;;9.60;99.90;;;;;;4913690;29;20186;-78
2023/01/13 15:27:18;;;;;;;8.43;2.43;;;9.60;99.90;;;;;;4914483;29;20215;-78
2023/01/13 15:29:44;;;;;;;13.00;3.10;;;9.60;99.90;;;;;;4912657;29;20446;-77
2023/01/13 15:32:19;;;;;;;7.87;3.40;;;9.60;99.90;;;;;;4901307;29;20547;-77
2023/01/13 15:34:45;;;;;;;5.70;3.30;;;9.60;99.90;;;;;;4908176;29;20179;-78
2023/01/13 15:37:12;;;;;;;12.73;3.87;;;9.70;99.90;;;;;;4912076;29;20436;-78
2023/01/13 15:39:38;;;;;;;15.70;3.30;;;9.60;99.90;;;;;;4913008;29;20494;-77
2023/01/13 15:47:32;;;;;;;8.17;3.10;;;9.40;99.90;;;;;;4912756;29;20527;-77
2023/01/13 15:49:57;;;;;;;8.73;4.20;;;9.40;99.90;;;;;;4912524;29;20943;-77
2023/01/13 15:52:26;;;;;;;7.53;3.53;;;9.40;99.90;;;;;;4919886;29;20202;-79
2023/01/13 15:54:52;;;;;;;13.47;3.10;;;9.40;99.90;;;;;;4914665;29;20183;-78
2023/01/13 15:57:24;;;;;;;12.00;4.27;;;9.30;99.90;;;;;;4912463;29;20467;-78
2023/01/13 15:59:52;;;;;;;11.77;4.17;;;9.30;99.90;;;;;;4907582;29;20476;-78
2023/01/13 16:02:17;;;;;;;15.13;4.90;;;9.30;99.90;;;;;;4913491;29;20435;-79
2023/01/13 16:04:46;;;;;;;10.70;4.53;;;9.20;99.90;;;;;;4916789;29;20459;-78
2023/01/13 16:07:17;;;;;;;10.67;5.33;;;9.20;99.90;;;;;;4916737;29;20171;-80
2023/01/13 16:09:44;;;;;;;6.83;3.20;;;9.10;99.90;;;;;;4916162;29;20434;-78
2023/01/13 16:12:10;;;;;;;14.63;4.07;;;9.10;99.90;;;;;;4916793;29;20528;-81
2023/01/13 16:14:36;;;;;;;12.07;3.93;;;9.10;99.90;;;;;;4915558;29;20431;-76
2023/01/13 16:17:24;;;;;;;13.43;4.70;;;9.10;99.90;;;;;;4914147;29;20443;-76
2023/01/13 16:19:50;;;;;;;12.07;3.40;;;9.10;99.90;;;;;;4909850;29;20231;-77
2023/01/13 16:22:16;;;;;;;13.70;4.67;;;9.10;99.90;;;;;;4907534;29;20429;-76
2023/01/13 16:24:42;;;;;;;14.13;4.20;;;9.20;99.90;;;;;;4911839;29;20960;-79
2023/01/13 16:27:21;;;;;;;18.40;4.40;;;9.10;99.90;;;;;;4910140;29;20451;-78
2023/01/13 16:29:48;;;;;;;11.37;4.00;;;9.10;99.90;;;;;;4893294;29;20995;-77
2023/01/13 16:32:14;;;;;;;11.50;3.20;;;9.20;99.90;;;;;;4911128;29;20475;-76
2023/01/13 16:34:39;;;;;;;7.63;3.70;;;9.20;99.90;;;;;;4911396;29;20443;-76
2023/01/13 16:37:32;;;;;;;16.33;4.33;;;9.30;99.90;;;;;;4913294;29;20763;-77
2023/01/13 16:39:57;;;;;;;11.60;3.53;;;9.30;99.90;;;;;;4909917;29;20196;-77
2023/01/13 16:42:23;;;;;;;10.27;3.67;;;9.30;99.90;;;;;;4909334;29;20443;-78
2023/01/13 16:44:49;;;;;;;9.47;3.30;;;9.30;99.90;;;;;;4911466;29;20187;-79
2023/01/13 16:47:16;;;;;;;12.30;3.80;;;9.20;99.90;;;;;;4912862;29;20930;-81
2023/01/13 16:49:42;;;;;;;12.17;3.37;;;9.30;99.90;;;;;;4910695;29;20872;-77
2023/01/13 16:52:08;;;;;;;12.87;5.30;;;9.30;99.90;;;;;;4909903;29;20499;-77
2023/01/13 16:54:34;;;;;;;10.90;3.43;;;9.30;99.90;;;;;;4910109;29;20195;-80
2023/01/13 16:56:59;;;;;;;9.53;3.00;;;9.40;99.90;;;;;;4910102;29;20184;-78
2023/01/13 16:59:25;;;;;;;10.27;3.10;;;9.40;99.90;;;;;;4910972;29;20488;-73
2023/01/13 17:01:50;;;;;;;8.70;3.53;;;9.40;99.90;;;;;;4919636;29;20183;-73
2023/01/13 17:04:22;;;;;;;13.10;3.57;;;9.40;99.90;;;;;;4919924;29;20222;-74
2023/01/13 17:06:57;;;;;;;14.60;3.87;;;9.40;99.90;;;;;;4919440;29;20182;-76
2023/01/13 17:09:25;;;;;;;13.53;3.97;;;9.40;99.90;;;;;;4919987;29;20522;-76
2023/01/13 17:11:51;;;;;;;12.47;3.20;;;9.30;99.90;;;;;;4920108;29;20427;-74
2023/01/13 17:14:20;;;;;;;9.20;3.23;;;9.30;99.90;;;;;;4917931;29;20458;-75
2023/01/13 17:16:46;;;;;;;13.00;4.03;;;9.30;99.90;;;;;;4915896;29;20459;-76
2023/01/13 17:19:12;;;;;;;19.53;3.97;;;9.40;99.90;;;;;;4915034;29;20919;-77
2023/01/13 17:21:37;;;;;;;10.20;3.90;;;9.40;99.90;;;;;;4916894;29;20499;-76
2023/01/13 17:24:05;;;;;;;9.80;4.20;;;9.30;99.90;;;;;;4918506;29;20654;-76
2023/01/13 17:26:35;;;;;;;11.37;4.10;;;9.40;99.90;;;;;;4910549;29;20262;-81
2023/01/13 17:29:07;;;;;;;12.67;3.33;;;9.30;99.90;;;;;;4916032;29;20440;-80
2023/01/13 17:31:34;;;;;;;13.03;3.60;;;9.30;99.90;;;;;;4912766;29;20487;-81
2023/01/13 17:34:00;;;;;;;8.97;3.23;;;9.30;99.90;;;;;;4911825;29;20436;-81
2023/01/13 17:36:25;;;;;;;11.13;3.50;;;9.30;99.90;;;;;;4913461;29;20473;-76
2023/01/13 17:38:51;;;;;;;14.20;3.70;;;9.20;99.90;;;;;;4915089;29;20998;-79
2023/01/13 17:41:17;;;;;;;8.83;3.33;;;9.20;99.90;;;;;;4917147;29;20180;-84
2023/01/13 17:43:42;;;;;;;9.93;3.43;;;9.20;99.90;;;;;;4905978;29;20455;-79